sensor_id;sensor_type;location;lat;lon;timestamp;P1;durP1;ratioP1;P2;durP2;ratioP2
67352;SDS011;54238;52.278;21.056;2024-02-23T00:00:15;13.20;;;7.90;;
67352;SDS011;54238;52.278;21.056;2024-02-23T00:03:05;13.10;;;8.00;;
67352;SDS011;54238;52.278;21.056;2024-02-23T00:05:32;10.50;;;7.60;;
67352;SDS011;54238;52.278;21.056;2024-02-23T00:08:02;15.20;;;7.60;;
67352;SDS011;54238;52.278;21.056;2024-02-23T00:10:33;11.70;;;7.70;;
67352;SDS011;54238;52.278;21.056;2024-02-23T00:13:07;13.40;;;7.60;;
67352;SDS011;54238;52.278;21.056;2024-02-23T00:15:37;14.90;;;7.80;;
67352;SDS011;54238;52.278;21.056;2024-02-23T00:18:08;12.20;;;7.80;;
67352;SDS011;54238;52.278;21.056;2024-02-23T00:20:36;14.30;;;9.00;;
67352;SDS011;54238;52.278;21.056;2024-02-23T00:23:05;14.00;;;8.00;;
67352;SDS011;54238;52.278;21.056;2024-02-23T00:25:34;15.90;;;8.90;;
67352;SDS011;54238;52.278;21.056;2024-02-23T00:28:03;10.00;;;7.90;;
67352;SDS011;54238;52.278;21.056;2024-02-23T00:30:33;14.50;;;7.60;;
67352;SDS011;54238;52.278;21.056;2024-02-23T00:33:00;14.10;;;8.60;;
67352;SDS011;54238;52.278;21.056;2024-02-23T00:35:27;12.00;;;7.90;;
67352;SDS011;54238;52.278;21.056;2024-02-23T00:37:54;10.10;;;8.20;;
67352;SDS011;54238;52.278;21.056;2024-02-23T00:40:21;12.20;;;8.00;;
67352;SDS011;54238;52.278;21.056;2024-02-23T00:42:52;11.50;;;8.60;;
67352;SDS011;54238;52.278;21.056;2024-02-23T00:45:19;11.90;;;8.20;;
67352;SDS011;54238;52.278;21.056;2024-02-23T00:47:46;11.50;;;7.70;;
67352;SDS011;54238;52.278;21.056;2024-02-23T00:50:14;11.10;;;7.70;;
67352;SDS011;54238;52.278;21.056;2024-02-23T00:52:48;11.30;;;7.20;;
67352;SDS011;54238;52.278;21.056;2024-02-23T00:55:15;10.50;;;6.70;;
67352;SDS011;54238;52.278;21.056;2024-02-23T00:57:42;12.20;;;8.30;;
67352;SDS011;54238;52.278;21.056;2024-02-23T01:00:12;10.80;;;8.10;;
67352;SDS011;54238;52.278;21.056;2024-02-23T01:02:39;11.40;;;8.30;;
67352;SDS011;54238;52.278;21.056;2024-02-23T01:05:07;12.40;;;7.60;;
67352;SDS011;54238;52.278;21.056;2024-02-23T01:07:37;14.00;;;7.60;;
67352;SDS011;54238;52.278;21.056;2024-02-23T01:10:09;11.00;;;7.40;;
67352;SDS011;54238;52.278;21.056;2024-02-23T01:12:43;10.30;;;7.60;;
67352;SDS011;54238;52.278;21.056;2024-02-23T01:15:13;9.60;;;6.50;;
67352;SDS011;54238;52.278;21.056;2024-02-23T01:17:40;9.90;;;7.10;;
67352;SDS011;54238;52.278;21.056;2024-02-23T01:20:11;9.60;;;6.80;;
67352;SDS011;54238;52.278;21.056;2024-02-23T01:22:40;10.60;;;7.20;;
67352;SDS011;54238;52.278;21.056;2024-02-23T01:25:07;11.70;;;7.50;;
67352;SDS011;54238;52.278;21.056;2024-02-23T01:27:41;8.90;;;7.30;;
67352;SDS011;54238;52.278;21.056;2024-02-23T01:30:11;10.90;;;7.50;;
67352;SDS011;54238;52.278;21.056;2024-02-23T01:32:40;11.40;;;7.70;;
67352;SDS011;54238;52.278;21.056;2024-02-23T01:35:08;11.00;;;6.90;;
67352;SDS011;54238;52.278;21.056;2024-02-23T01:37:40;9.50;;;6.80;;
67352;SDS011;54238;52.278;21.056;2024-02-23T01:40:09;13.00;;;7.30;;
67352;SDS011;54238;52.278;21.056;2024-02-23T01:42:36;10.20;;;7.10;;
67352;SDS011;54238;52.278;21.056;2024-02-23T01:45:06;10.10;;;7.70;;
67352;SDS011;54238;52.278;21.056;2024-02-23T01:47:34;10.50;;;6.50;;
67352;SDS011;54238;52.278;21.056;2024-02-23T01:50:02;9.80;;;6.90;;
67352;SDS011;54238;52.278;21.056;2024-02-23T01:52:33;11.20;;;6.70;;
67352;SDS011;54238;52.278;21.056;2024-02-23T01:55:03;10.30;;;6.00;;
67352;SDS011;54238;52.278;21.056;2024-02-23T01:57:35;9.90;;;7.20;;
67352;SDS011;54238;52.278;21.056;2024-02-23T02:00:09;11.70;;;7.00;;
67352;SDS011;54238;52.278;21.056;2024-02-23T02:02:40;8.00;;;6.20;;
67352;SDS011;54238;52.278;21.056;2024-02-23T02:05:13;11.30;;;7.70;;
67352;SDS011;54238;52.278;21.056;2024-02-23T02:07:44;11.60;;;6.50;;
67352;SDS011;54238;52.278;21.056;2024-02-23T02:10:13;9.50;;;7.00;;
67352;SDS011;54238;52.278;21.056;2024-02-23T02:12:43;8.20;;;6.00;;
67352;SDS011;54238;52.278;21.056;2024-02-23T02:15:12;8.10;;;6.50;;
67352;SDS011;54238;52.278;21.056;2024-02-23T02:17:39;12.10;;;7.20;;
67352;SDS011;54238;52.278;21.056;2024-02-23T02:20:13;9.90;;;6.00;;
67352;SDS011;54238;52.278;21.056;2024-02-23T02:22:44;9.00;;;6.00;;
67352;SDS011;54238;52.278;21.056;2024-02-23T02:25:14;9.10;;;6.20;;
67352;SDS011;54238;52.278;21.056;2024-02-23T02:27:43;8.60;;;6.20;;
67352;SDS011;54238;52.278;21.056;2024-02-23T02:30:15;8.70;;;6.20;;
67352;SDS011;54238;52.278;21.056;2024-02-23T02:32:42;8.90;;;6.00;;
67352;SDS011;54238;52.278;21.056;2024-02-23T02:35:13;8.20;;;6.10;;
67352;SDS011;54238;52.278;21.056;2024-02-23T02:37:44;7.30;;;5.60;;
67352;SDS011;54238;52.278;21.056;2024-02-23T02:40:14;6.90;;;5.40;;
67352;SDS011;54238;52.278;21.056;2024-02-23T02:42:42;8.30;;;6.10;;
67352;SDS011;54238;52.278;21.056;2024-02-23T02:45:09;8.20;;;6.00;;
67352;SDS011;54238;52.278;21.056;2024-02-23T02:47:38;9.80;;;6.30;;
67352;SDS011;54238;52.278;21.056;2024-02-23T02:50:08;8.10;;;6.00;;
67352;SDS011;54238;52.278;21.056;2024-02-23T02:52:36;9.80;;;5.70;;
67352;SDS011;54238;52.278;21.056;2024-02-23T02:55:04;9.00;;;5.60;;
67352;SDS011;54238;52.278;21.056;2024-02-23T02:57:34;6.70;;;5.20;;
67352;SDS011;54238;52.278;21.056;2024-02-23T03:00:09;7.20;;;5.60;;
67352;SDS011;54238;52.278;21.056;2024-02-23T03:02:37;8.60;;;5.50;;
67352;SDS011;54238;52.278;21.056;2024-02-23T03:05:07;6.50;;;4.80;;
67352;SDS011;54238;52.278;21.056;2024-02-23T03:07:37;7.80;;;5.60;;
67352;SDS011;54238;52.278;21.056;2024-02-23T03:10:04;9.70;;;5.60;;
67352;SDS011;54238;52.278;21.056;2024-02-23T03:12:32;7.40;;;4.80;;
67352;SDS011;54238;52.278;21.056;2024-02-23T03:15:01;6.60;;;5.10;;
67352;SDS011;54238;52.278;21.056;2024-02-23T03:17:32;6.90;;;5.00;;
67352;SDS011;54238;52.278;21.056;2024-02-23T03:19:59;7.50;;;5.00;;
67352;SDS011;54238;52.278;21.056;2024-02-23T03:22:35;8.00;;;5.10;;
67352;SDS011;54238;52.278;21.056;2024-02-23T03:25:05;8.80;;;5.10;;
67352;SDS011;54238;52.278;21.056;2024-02-23T03:27:37;7.00;;;4.80;;
67352;SDS011;54238;52.278;21.056;2024-02-23T03:30:07;6.40;;;4.30;;
67352;SDS011;54238;52.278;21.056;2024-02-23T03:32:39;6.90;;;4.50;;
67352;SDS011;54238;52.278;21.056;2024-02-23T03:35:06;6.20;;;4.30;;
67352;SDS011;54238;52.278;21.056;2024-02-23T03:37:35;7.00;;;4.50;;
67352;SDS011;54238;52.278;21.056;2024-02-23T03:40:08;6.70;;;4.50;;
67352;SDS011;54238;52.278;21.056;2024-02-23T03:42:44;6.00;;;4.00;;
67352;SDS011;54238;52.278;21.056;2024-02-23T03:45:15;6.50;;;4.30;;
67352;SDS011;54238;52.278;21.056;2024-02-23T03:47:45;6.70;;;4.50;;
67352;SDS011;54238;52.278;21.056;2024-02-23T03:50:17;7.20;;;3.80;;
67352;SDS011;54238;52.278;21.056;2024-02-23T03:52:49;6.30;;;4.20;;
67352;SDS011;54238;52.278;21.056;2024-02-23T03:55:20;6.80;;;4.50;;
67352;SDS011;54238;52.278;21.056;2024-02-23T03:57:51;7.40;;;4.30;;
67352;SDS011;54238;52.278;21.056;2024-02-23T04:00:25;6.60;;;4.30;;
67352;SDS011;54238;52.278;21.056;2024-02-23T04:02:55;10.50;;;4.70;;
67352;SDS011;54238;52.278;21.056;2024-02-23T04:05:22;6.80;;;4.10;;
67352;SDS011;54238;52.278;21.056;2024-02-23T04:07:51;6.10;;;4.50;;
67352;SDS011;54238;52.278;21.056;2024-02-23T04:10:20;9.30;;;4.60;;
67352;SDS011;54238;52.278;21.056;2024-02-23T04:13:14;7.80;;;4.20;;
67352;SDS011;54238;52.278;21.056;2024-02-23T04:16:01;6.60;;;4.70;;
67352;SDS011;54238;52.278;21.056;2024-02-23T04:18:50;5.10;;;4.10;;
67352;SDS011;54238;52.278;21.056;2024-02-23T04:21:40;5.70;;;4.20;;
67352;SDS011;54238;52.278;21.056;2024-02-23T04:24:29;6.30;;;4.10;;
67352;SDS011;54238;52.278;21.056;2024-02-23T04:27:18;6.80;;;4.60;;
67352;SDS011;54238;52.278;21.056;2024-02-23T04:30:08;7.20;;;5.20;;
67352;SDS011;54238;52.278;21.056;2024-02-23T04:32:58;4.70;;;4.00;;
67352;SDS011;54238;52.278;21.056;2024-02-23T04:35:45;7.90;;;4.00;;
67352;SDS011;54238;52.278;21.056;2024-02-23T04:38:34;6.90;;;4.60;;
67352;SDS011;54238;52.278;21.056;2024-02-23T04:41:26;6.00;;;4.20;;
67352;SDS011;54238;52.278;21.056;2024-02-23T04:44:15;5.20;;;4.30;;
67352;SDS011;54238;52.278;21.056;2024-02-23T04:47:02;11.00;;;4.40;;
67352;SDS011;54238;52.278;21.056;2024-02-23T04:49:52;6.90;;;5.00;;
67352;SDS011;54238;52.278;21.056;2024-02-23T04:52:39;7.60;;;3.90;;
67352;SDS011;54238;52.278;21.056;2024-02-23T04:55:30;5.50;;;4.50;;
67352;SDS011;54238;52.278;21.056;2024-02-23T04:58:19;5.70;;;4.50;;
67352;SDS011;54238;52.278;21.056;2024-02-23T05:01:10;5.20;;;4.30;;
67352;SDS011;54238;52.278;21.056;2024-02-23T05:03:59;4.80;;;3.80;;
67352;SDS011;54238;52.278;21.056;2024-02-23T05:06:46;6.20;;;4.10;;
67352;SDS011;54238;52.278;21.056;2024-02-23T05:09:37;6.30;;;4.20;;
67352;SDS011;54238;52.278;21.056;2024-02-23T05:12:27;6.40;;;3.90;;
67352;SDS011;54238;52.278;21.056;2024-02-23T05:15:16;6.40;;;4.20;;
67352;SDS011;54238;52.278;21.056;2024-02-23T05:18:05;5.10;;;3.80;;
67352;SDS011;54238;52.278;21.056;2024-02-23T05:20:33;7.30;;;6.30;;
67352;SDS011;54238;52.278;21.056;2024-02-23T05:23:00;6.40;;;4.30;;
67352;SDS011;54238;52.278;21.056;2024-02-23T05:25:27;7.00;;;4.10;;
67352;SDS011;54238;52.278;21.056;2024-02-23T05:27:56;6.50;;;3.90;;
67352;SDS011;54238;52.278;21.056;2024-02-23T05:30:25;6.80;;;4.00;;
67352;SDS011;54238;52.278;21.056;2024-02-23T05:33:00;7.40;;;4.70;;
67352;SDS011;54238;52.278;21.056;2024-02-23T05:35:32;8.10;;;4.50;;
67352;SDS011;54238;52.278;21.056;2024-02-23T05:38:03;4.50;;;3.90;;
67352;SDS011;54238;52.278;21.056;2024-02-23T05:40:37;4.70;;;3.70;;
67352;SDS011;54238;52.278;21.056;2024-02-23T05:43:09;6.80;;;3.80;;
67352;SDS011;54238;52.278;21.056;2024-02-23T05:45:38;6.20;;;4.10;;
67352;SDS011;54238;52.278;21.056;2024-02-23T05:48:07;7.60;;;4.10;;
67352;SDS011;54238;52.278;21.056;2024-02-23T05:50:40;5.50;;;3.80;;
67352;SDS011;54238;52.278;21.056;2024-02-23T05:53:07;7.10;;;4.40;;
67352;SDS011;54238;52.278;21.056;2024-02-23T05:55:34;6.90;;;3.90;;
67352;SDS011;54238;52.278;21.056;2024-02-23T05:58:01;11.80;;;4.30;;
67352;SDS011;54238;52.278;21.056;2024-02-23T06:00:31;5.90;;;3.70;;
67352;SDS011;54238;52.278;21.056;2024-02-23T06:02:59;6.00;;;4.30;;
67352;SDS011;54238;52.278;21.056;2024-02-23T06:05:28;5.10;;;3.40;;
67352;SDS011;54238;52.278;21.056;2024-02-23T06:07:57;6.80;;;5.30;;
67352;SDS011;54238;52.278;21.056;2024-02-23T06:10:28;6.30;;;4.20;;
67352;SDS011;54238;52.278;21.056;2024-02-23T06:12:55;7.30;;;4.30;;
67352;SDS011;54238;52.278;21.056;2024-02-23T06:15:22;5.50;;;3.60;;
67352;SDS011;54238;52.278;21.056;2024-02-23T06:17:49;5.80;;;3.90;;
67352;SDS011;54238;52.278;21.056;2024-02-23T06:20:16;5.80;;;4.10;;
67352;SDS011;54238;52.278;21.056;2024-02-23T06:22:46;8.80;;;3.50;;
67352;SDS011;54238;52.278;21.056;2024-02-23T06:25:18;5.50;;;3.50;;
67352;SDS011;54238;52.278;21.056;2024-02-23T06:27:45;8.50;;;4.10;;
67352;SDS011;54238;52.278;21.056;2024-02-23T06:30:15;8.00;;;3.70;;
67352;SDS011;54238;52.278;21.056;2024-02-23T06:32:44;6.00;;;3.60;;
67352;SDS011;54238;52.278;21.056;2024-02-23T06:35:13;5.40;;;3.70;;
67352;SDS011;54238;52.278;21.056;2024-02-23T06:37:43;7.00;;;3.40;;
67352;SDS011;54238;52.278;21.056;2024-02-23T06:40:10;6.60;;;3.60;;
67352;SDS011;54238;52.278;21.056;2024-02-23T06:42:40;4.00;;;3.20;;
67352;SDS011;54238;52.278;21.056;2024-02-23T06:45:12;5.50;;;4.20;;
67352;SDS011;54238;52.278;21.056;2024-02-23T06:47:41;5.00;;;3.50;;
67352;SDS011;54238;52.278;21.056;2024-02-23T06:50:13;6.80;;;3.60;;
67352;SDS011;54238;52.278;21.056;2024-02-23T06:52:47;5.20;;;3.80;;
67352;SDS011;54238;52.278;21.056;2024-02-23T06:55:18;6.30;;;4.10;;
67352;SDS011;54238;52.278;21.056;2024-02-23T06:57:48;5.30;;;3.50;;
67352;SDS011;54238;52.278;21.056;2024-02-23T07:00:17;6.30;;;3.60;;
67352;SDS011;54238;52.278;21.056;2024-02-23T07:02:48;6.00;;;3.70;;
67352;SDS011;54238;52.278;21.056;2024-02-23T07:05:15;5.90;;;4.40;;
67352;SDS011;54238;52.278;21.056;2024-02-23T07:07:45;8.00;;;3.70;;
67352;SDS011;54238;52.278;21.056;2024-02-23T07:10:15;7.20;;;4.10;;
67352;SDS011;54238;52.278;21.056;2024-02-23T07:12:47;6.70;;;4.10;;
67352;SDS011;54238;52.278;21.056;2024-02-23T07:15:14;7.30;;;4.50;;
67352;SDS011;54238;52.278;21.056;2024-02-23T07:17:44;7.40;;;4.00;;
67352;SDS011;54238;52.278;21.056;2024-02-23T07:20:15;5.20;;;4.30;;
67352;SDS011;54238;52.278;21.056;2024-02-23T07:22:45;5.10;;;4.00;;
67352;SDS011;54238;52.278;21.056;2024-02-23T07:25:17;7.50;;;3.80;;
67352;SDS011;54238;52.278;21.056;2024-02-23T07:27:48;5.80;;;3.70;;
67352;SDS011;54238;52.278;21.056;2024-02-23T07:30:16;4.60;;;3.60;;
67352;SDS011;54238;52.278;21.056;2024-02-23T07:32:48;5.70;;;4.00;;
67352;SDS011;54238;52.278;21.056;2024-02-23T07:35:15;7.10;;;4.00;;
67352;SDS011;54238;52.278;21.056;2024-02-23T07:37:43;6.10;;;3.50;;
67352;SDS011;54238;52.278;21.056;2024-02-23T07:40:10;8.30;;;3.80;;
67352;SDS011;54238;52.278;21.056;2024-02-23T07:42:37;6.70;;;4.00;;
67352;SDS011;54238;52.278;21.056;2024-02-23T07:45:07;7.90;;;4.40;;
67352;SDS011;54238;52.278;21.056;2024-02-23T07:47:36;6.80;;;3.80;;
67352;SDS011;54238;52.278;21.056;2024-02-23T07:50:03;6.20;;;3.80;;
67352;SDS011;54238;52.278;21.056;2024-02-23T07:52:33;7.80;;;4.10;;
67352;SDS011;54238;52.278;21.056;2024-02-23T07:55:05;6.10;;;4.30;;
67352;SDS011;54238;52.278;21.056;2024-02-23T07:57:33;5.60;;;4.00;;
67352;SDS011;54238;52.278;21.056;2024-02-23T08:00:08;6.20;;;4.20;;
67352;SDS011;54238;52.278;21.056;2024-02-23T08:02:39;6.40;;;4.30;;
67352;SDS011;54238;52.278;21.056;2024-02-23T08:05:07;5.30;;;3.60;;
67352;SDS011;54238;52.278;21.056;2024-02-23T08:07:39;6.20;;;4.50;;
67352;SDS011;54238;52.278;21.056;2024-02-23T08:10:06;8.60;;;4.60;;
67352;SDS011;54238;52.278;21.056;2024-02-23T08:12:36;5.50;;;4.20;;
67352;SDS011;54238;52.278;21.056;2024-02-23T08:15:03;9.10;;;4.40;;
67352;SDS011;54238;52.278;21.056;2024-02-23T08:17:33;7.50;;;4.30;;
67352;SDS011;54238;52.278;21.056;2024-02-23T08:20:00;6.40;;;4.10;;
67352;SDS011;54238;52.278;21.056;2024-02-23T08:22:31;7.20;;;4.50;;
67352;SDS011;54238;52.278;21.056;2024-02-23T08:25:00;7.70;;;4.80;;
67352;SDS011;54238;52.278;21.056;2024-02-23T08:27:31;6.30;;;3.70;;
67352;SDS011;54238;52.278;21.056;2024-02-23T08:29:58;5.50;;;4.20;;
67352;SDS011;54238;52.278;21.056;2024-02-23T08:32:25;5.70;;;4.00;;
67352;SDS011;54238;52.278;21.056;2024-02-23T08:34:55;8.60;;;4.40;;
67352;SDS011;54238;52.278;21.056;2024-02-23T08:37:26;8.10;;;4.10;;
67352;SDS011;54238;52.278;21.056;2024-02-23T08:39:53;5.30;;;4.20;;
67352;SDS011;54238;52.278;21.056;2024-02-23T08:42:23;7.70;;;4.30;;
67352;SDS011;54238;52.278;21.056;2024-02-23T08:44:55;8.30;;;4.60;;
67352;SDS011;54238;52.278;21.056;2024-02-23T08:47:26;6.20;;;4.40;;
67352;SDS011;54238;52.278;21.056;2024-02-23T08:49:58;8.10;;;4.70;;
67352;SDS011;54238;52.278;21.056;2024-02-23T08:52:28;9.00;;;4.40;;
67352;SDS011;54238;52.278;21.056;2024-02-23T08:55:00;9.40;;;4.80;;
67352;SDS011;54238;52.278;21.056;2024-02-23T08:57:27;10.50;;;4.00;;
67352;SDS011;54238;52.278;21.056;2024-02-23T08:59:54;6.50;;;4.10;;
67352;SDS011;54238;52.278;21.056;2024-02-23T09:02:27;7.00;;;4.30;;
67352;SDS011;54238;52.278;21.056;2024-02-23T09:04:54;6.00;;;4.10;;
67352;SDS011;54238;52.278;21.056;2024-02-23T09:07:24;7.60;;;5.00;;
67352;SDS011;54238;52.278;21.056;2024-02-23T09:09:51;7.60;;;5.00;;
67352;SDS011;54238;52.278;21.056;2024-02-23T09:12:20;9.00;;;5.10;;
67352;SDS011;54238;52.278;21.056;2024-02-23T09:14:50;7.70;;;4.70;;
67352;SDS011;54238;52.278;21.056;2024-02-23T09:17:19;5.60;;;4.30;;
67352;SDS011;54238;52.278;21.056;2024-02-23T09:19:54;9.10;;;5.70;;
67352;SDS011;54238;52.278;21.056;2024-02-23T09:22:24;8.30;;;4.70;;
67352;SDS011;54238;52.278;21.056;2024-02-23T09:24:56;7.80;;;4.70;;
67352;SDS011;54238;52.278;21.056;2024-02-23T09:27:28;10.70;;;5.00;;
67352;SDS011;54238;52.278;21.056;2024-02-23T09:29:57;7.60;;;4.70;;
67352;SDS011;54238;52.278;21.056;2024-02-23T09:32:25;9.50;;;4.90;;
67352;SDS011;54238;52.278;21.056;2024-02-23T09:34:52;12.10;;;5.10;;
67352;SDS011;54238;52.278;21.056;2024-02-23T09:37:19;6.90;;;4.60;;
67352;SDS011;54238;52.278;21.056;2024-02-23T09:39:50;7.50;;;5.10;;
67352;SDS011;54238;52.278;21.056;2024-02-23T09:42:21;7.50;;;4.50;;
67352;SDS011;54238;52.278;21.056;2024-02-23T09:44:59;6.60;;;4.80;;
67352;SDS011;54238;52.278;21.056;2024-02-23T09:47:29;6.50;;;4.40;;
67352;SDS011;54238;52.278;21.056;2024-02-23T09:50:00;7.00;;;4.70;;
67352;SDS011;54238;52.278;21.056;2024-02-23T09:52:33;9.70;;;5.60;;
67352;SDS011;54238;52.278;21.056;2024-02-23T09:55:03;13.60;;;5.60;;
67352;SDS011;54238;52.278;21.056;2024-02-23T09:57:30;7.80;;;4.70;;
67352;SDS011;54238;52.278;21.056;2024-02-23T10:00:01;9.80;;;5.10;;
67352;SDS011;54238;52.278;21.056;2024-02-23T10:02:39;8.60;;;5.10;;
67352;SDS011;54238;52.278;21.056;2024-02-23T10:05:08;7.60;;;4.80;;
67352;SDS011;54238;52.278;21.056;2024-02-23T10:07:40;7.60;;;4.60;;
67352;SDS011;54238;52.278;21.056;2024-02-23T10:10:08;6.40;;;4.30;;
67352;SDS011;54238;52.278;21.056;2024-02-23T10:12:37;10.50;;;5.20;;
67352;SDS011;54238;52.278;21.056;2024-02-23T10:15:07;9.40;;;5.00;;
67352;SDS011;54238;52.278;21.056;2024-02-23T10:17:34;6.20;;;4.40;;
67352;SDS011;54238;52.278;21.056;2024-02-23T10:20:01;9.70;;;5.10;;
67352;SDS011;54238;52.278;21.056;2024-02-23T10:22:31;11.50;;;5.30;;
67352;SDS011;54238;52.278;21.056;2024-02-23T10:25:01;9.30;;;5.00;;
67352;SDS011;54238;52.278;21.056;2024-02-23T10:27:31;9.40;;;4.80;;
67352;SDS011;54238;52.278;21.056;2024-02-23T10:29:58;7.50;;;5.50;;
67352;SDS011;54238;52.278;21.056;2024-02-23T10:32:29;7.70;;;5.10;;
67352;SDS011;54238;52.278;21.056;2024-02-23T10:35:00;7.50;;;5.70;;
67352;SDS011;54238;52.278;21.056;2024-02-23T10:37:32;7.20;;;5.20;;
67352;SDS011;54238;52.278;21.056;2024-02-23T10:40:09;7.20;;;5.30;;
67352;SDS011;54238;52.278;21.056;2024-02-23T10:42:44;8.30;;;5.10;;
67352;SDS011;54238;52.278;21.056;2024-02-23T10:45:18;8.20;;;5.30;;
67352;SDS011;54238;52.278;21.056;2024-02-23T10:47:53;8.90;;;4.90;;
67352;SDS011;54238;52.278;21.056;2024-02-23T10:50:23;6.30;;;5.00;;
67352;SDS011;54238;52.278;21.056;2024-02-23T10:52:53;9.60;;;5.60;;
67352;SDS011;54238;52.278;21.056;2024-02-23T10:55:21;8.10;;;5.60;;
67352;SDS011;54238;52.278;21.056;2024-02-23T10:57:55;11.50;;;5.90;;
67352;SDS011;54238;52.278;21.056;2024-02-23T11:00:23;7.40;;;5.30;;
67352;SDS011;54238;52.278;21.056;2024-02-23T11:02:53;9.00;;;5.20;;
67352;SDS011;54238;52.278;21.056;2024-02-23T11:05:24;10.40;;;5.80;;
67352;SDS011;54238;52.278;21.056;2024-02-23T11:07:58;8.20;;;5.10;;
67352;SDS011;54238;52.278;21.056;2024-02-23T11:10:27;10.30;;;5.20;;
67352;SDS011;54238;52.278;21.056;2024-02-23T11:12:58;6.60;;;5.10;;
67352;SDS011;54238;52.278;21.056;2024-02-23T11:15:33;10.00;;;6.10;;
67352;SDS011;54238;52.278;21.056;2024-02-23T11:18:25;12.60;;;5.60;;
67352;SDS011;54238;52.278;21.056;2024-02-23T11:20:59;10.00;;;5.70;;
67352;SDS011;54238;52.278;21.056;2024-02-23T11:26:12;8.40;;;5.90;;
67352;SDS011;54238;52.278;21.056;2024-02-23T11:28:49;10.40;;;5.40;;
67352;SDS011;54238;52.278;21.056;2024-02-23T11:31:20;13.30;;;5.50;;
67352;SDS011;54238;52.278;21.056;2024-02-23T11:33:54;11.70;;;5.90;;
67352;SDS011;54238;52.278;21.056;2024-02-23T11:36:30;7.50;;;5.30;;
67352;SDS011;54238;52.278;21.056;2024-02-23T11:39:03;9.00;;;5.70;;
67352;SDS011;54238;52.278;21.056;2024-02-23T11:41:30;10.20;;;6.40;;
67352;SDS011;54238;52.278;21.056;2024-02-23T11:43:59;7.90;;;5.40;;
67352;SDS011;54238;52.278;21.056;2024-02-23T11:46:32;7.20;;;5.50;;
67352;SDS011;54238;52.278;21.056;2024-02-23T11:48:59;12.60;;;6.80;;
67352;SDS011;54238;52.278;21.056;2024-02-23T11:51:31;8.80;;;6.40;;
67352;SDS011;54238;52.278;21.056;2024-02-23T11:54:03;13.50;;;6.20;;
67352;SDS011;54238;52.278;21.056;2024-02-23T11:56:33;7.90;;;5.60;;
67352;SDS011;54238;52.278;21.056;2024-02-23T11:59:03;7.90;;;5.90;;
67352;SDS011;54238;52.278;21.056;2024-02-23T12:01:30;11.80;;;5.60;;
67352;SDS011;54238;52.278;21.056;2024-02-23T12:03:59;14.40;;;6.10;;
67352;SDS011;54238;52.278;21.056;2024-02-23T12:06:33;11.90;;;5.40;;
67352;SDS011;54238;52.278;21.056;2024-02-23T12:09:03;8.40;;;5.70;;
67352;SDS011;54238;52.278;21.056;2024-02-23T12:11:31;10.10;;;6.10;;
67352;SDS011;54238;52.278;21.056;2024-02-23T12:14:05;8.80;;;7.10;;
67352;SDS011;54238;52.278;21.056;2024-02-23T12:16:40;9.90;;;7.00;;
67352;SDS011;54238;52.278;21.056;2024-02-23T12:19:10;17.40;;;11.30;;
67352;SDS011;54238;52.278;21.056;2024-02-23T12:21:40;15.20;;;12.00;;
67352;SDS011;54238;52.278;21.056;2024-02-23T12:24:07;15.80;;;12.20;;
67352;SDS011;54238;52.278;21.056;2024-02-23T12:26:34;13.30;;;10.80;;
67352;SDS011;54238;52.278;21.056;2024-02-23T12:29:03;17.00;;;11.40;;
67352;SDS011;54238;52.278;21.056;2024-02-23T12:31:33;12.00;;;9.10;;
67352;SDS011;54238;52.278;21.056;2024-02-23T12:34:05;10.30;;;7.60;;
67352;SDS011;54238;52.278;21.056;2024-02-23T12:36:36;12.90;;;7.70;;
67352;SDS011;54238;52.278;21.056;2024-02-23T12:39:03;11.20;;;6.80;;
67352;SDS011;54238;52.278;21.056;2024-02-23T12:41:31;9.30;;;7.10;;
67352;SDS011;54238;52.278;21.056;2024-02-23T12:44:01;11.70;;;6.40;;
67352;SDS011;54238;52.278;21.056;2024-02-23T12:46:28;10.40;;;6.30;;
67352;SDS011;54238;52.278;21.056;2024-02-23T12:48:55;13.60;;;7.30;;
67352;SDS011;54238;52.278;21.056;2024-02-23T12:51:25;12.70;;;6.30;;
67352;SDS011;54238;52.278;21.056;2024-02-23T12:53:55;8.50;;;6.30;;
67352;SDS011;54238;52.278;21.056;2024-02-23T12:56:29;9.00;;;6.00;;
67352;SDS011;54238;52.278;21.056;2024-02-23T12:58:58;10.30;;;6.00;;
67352;SDS011;54238;52.278;21.056;2024-02-23T13:01:32;12.10;;;6.20;;
67352;SDS011;54238;52.278;21.056;2024-02-23T13:04:06;11.30;;;6.40;;
67352;SDS011;54238;52.278;21.056;2024-02-23T13:06:40;10.90;;;6.40;;
67352;SDS011;54238;52.278;21.056;2024-02-23T13:09:07;8.10;;;6.10;;
67352;SDS011;54238;52.278;21.056;2024-02-23T13:11:38;8.70;;;6.30;;
67352;SDS011;54238;52.278;21.056;2024-02-23T13:14:08;10.00;;;6.90;;
67352;SDS011;54238;52.278;21.056;2024-02-23T13:16:38;10.10;;;6.50;;
67352;SDS011;54238;52.278;21.056;2024-02-23T13:19:05;11.20;;;6.60;;
67352;SDS011;54238;52.278;21.056;2024-02-23T13:21:35;9.80;;;6.50;;
67352;SDS011;54238;52.278;21.056;2024-02-23T13:24:04;9.60;;;5.80;;
67352;SDS011;54238;52.278;21.056;2024-02-23T13:26:33;8.60;;;6.00;;
67352;SDS011;54238;52.278;21.056;2024-02-23T13:29:04;10.30;;;7.70;;
67352;SDS011;54238;52.278;21.056;2024-02-23T13:31:31;10.20;;;6.80;;
67352;SDS011;54238;52.278;21.056;2024-02-23T13:34:03;9.30;;;6.60;;
67352;SDS011;54238;52.278;21.056;2024-02-23T13:36:30;11.00;;;7.00;;
67352;SDS011;54238;52.278;21.056;2024-02-23T13:39:01;10.40;;;6.90;;
67352;SDS011;54238;52.278;21.056;2024-02-23T13:41:29;10.40;;;7.10;;
67352;SDS011;54238;52.278;21.056;2024-02-23T13:44:01;11.20;;;7.10;;
67352;SDS011;54238;52.278;21.056;2024-02-23T13:46:30;10.30;;;7.20;;
67352;SDS011;54238;52.278;21.056;2024-02-23T13:49:06;10.40;;;7.70;;
67352;SDS011;54238;52.278;21.056;2024-02-23T13:51:37;11.10;;;7.20;;
67352;SDS011;54238;52.278;21.056;2024-02-23T13:54:10;9.10;;;6.60;;
67352;SDS011;54238;52.278;21.056;2024-02-23T13:56:42;11.40;;;7.00;;
67352;SDS011;54238;52.278;21.056;2024-02-23T13:59:14;9.80;;;6.90;;
67352;SDS011;54238;52.278;21.056;2024-02-23T14:01:41;10.90;;;7.60;;
67352;SDS011;54238;52.278;21.056;2024-02-23T14:04:11;15.20;;;7.70;;
67352;SDS011;54238;52.278;21.056;2024-02-23T14:06:40;13.70;;;7.80;;
67352;SDS011;54238;52.278;21.056;2024-02-23T14:09:09;11.70;;;8.30;;
67352;SDS011;54238;52.278;21.056;2024-02-23T14:11:36;12.40;;;8.70;;
67352;SDS011;54238;52.278;21.056;2024-02-23T14:14:04;14.00;;;8.90;;
67352;SDS011;54238;52.278;21.056;2024-02-23T14:16:34;13.10;;;7.70;;
67352;SDS011;54238;52.278;21.056;2024-02-23T14:19:01;11.60;;;8.50;;
67352;SDS011;54238;52.278;21.056;2024-02-23T14:21:33;14.90;;;6.70;;
67352;SDS011;54238;52.278;21.056;2024-02-23T14:24:04;16.40;;;7.60;;
67352;SDS011;54238;52.278;21.056;2024-02-23T14:26:33;13.00;;;8.20;;
67352;SDS011;54238;52.278;21.056;2024-02-23T14:29:03;16.70;;;8.60;;
67352;SDS011;54238;52.278;21.056;2024-02-23T14:31:35;12.60;;;8.30;;
67352;SDS011;54238;52.278;21.056;2024-02-23T14:34:06;15.30;;;9.30;;
67352;SDS011;54238;52.278;21.056;2024-02-23T14:36:33;10.80;;;8.20;;
67352;SDS011;54238;52.278;21.056;2024-02-23T14:39:05;10.30;;;7.50;;
67352;SDS011;54238;52.278;21.056;2024-02-23T14:41:40;11.10;;;8.10;;
67352;SDS011;54238;52.278;21.056;2024-02-23T14:44:09;12.50;;;9.30;;
67352;SDS011;54238;52.278;21.056;2024-02-23T14:46:38;11.00;;;8.20;;
67352;SDS011;54238;52.278;21.056;2024-02-23T14:49:08;13.90;;;8.90;;
67352;SDS011;54238;52.278;21.056;2024-02-23T14:51:39;14.30;;;10.00;;
67352;SDS011;54238;52.278;21.056;2024-02-23T14:54:09;13.50;;;8.90;;
67352;SDS011;54238;52.278;21.056;2024-02-23T14:56:36;14.00;;;8.60;;